Time;durP1;ratioP1;P1;durP2;ratioP2;P2;SDS_P1;SDS_P2;PMS_P1;PMS_P2;Temp;Humidity;BMP_temperature;BMP_pressure;BME280_temperature;BME280_humidity;BME280_pressure;Samples;Min_cycle;Max_cycle;Signal;HPM_P1;HPM_P2
2022/04/27 00:00:38;;;;;;;2.55;1.57;;;;;;;19.35;43.82;100666.33;1747825;82;20906;-91
2022/04/27 00:03:05;;;;;;;2.50;2.00;;;;;;;19.35;43.82;100658.05;1777606;80;20873;-91
2022/04/27 00:05:32;;;;;;;5.25;2.05;;;;;;;19.35;43.85;100666.33;1728886;82;21340;-91
2022/04/27 00:07:58;;;;;;;3.37;1.90;;;;;;;19.35;43.85;100670.47;1776810;80;21284;-91
2022/04/27 00:10:24;;;;;;;2.60;1.90;;;;;;;19.35;43.82;100669.09;1747654;81;20978;-91
2022/04/27 00:12:51;;;;;;;2.30;1.87;;;;;;;19.35;43.85;100663.56;1777755;79;20849;-91
2022/04/27 00:15:20;;;;;;;3.65;2.00;;;;;;;19.35;43.83;100663.56;1777258;79;21306;-91
2022/04/27 00:17:45;;;;;;;2.30;1.60;;;;;;;19.35;43.83;100670.47;1742822;82;21262;-91
2022/04/27 00:20:11;;;;;;;3.40;1.70;;;;;;;19.35;43.85;100660.02;1747897;82;21270;-91
2022/04/27 00:22:38;;;;;;;3.22;2.00;;;;;;;19.35;43.85;100658.64;1777162;80;21287;-91
2022/04/27 00:25:05;;;;;;;2.92;1.72;;;;;;;19.35;43.85;100660.81;1777359;79;20944;-91
2022/04/27 00:27:31;;;;;;;2.80;1.60;;;;;;;19.35;43.86;100659.43;1747953;81;20914;-91
2022/04/27 00:29:58;;;;;;;2.92;2.22;;;;;;;19.35;43.86;100662.78;1777488;80;20846;-91
2022/04/27 00:32:24;;;;;;;2.40;1.80;;;;;;;19.36;43.85;100657.48;1777628;80;21097;-91
2022/04/27 00:34:50;;;;;;;4.75;1.82;;;;;;;19.35;43.85;100660.81;1777274;80;20943;-91
2022/04/27 00:37:18;;;;;;;2.70;1.77;;;;;;;19.35;43.86;100663.56;1747703;82;21339;-91
2022/04/27 00:39:47;;;;;;;2.80;1.87;;;;;;;19.36;43.86;100654.73;1777672;80;20890;-91
2022/04/27 00:42:20;;;;;;;3.90;1.80;;;;;;;19.35;43.83;100656.67;1748141;82;20859;-91
2022/04/27 00:44:46;;;;;;;3.77;2.10;;;;;;;19.36;43.85;100656.11;1777175;80;21125;-91
2022/04/27 00:47:17;;;;;;;3.90;2.10;;;;;;;19.34;43.83;100660.58;1748071;82;20925;-91
2022/04/27 00:49:50;;;;;;;3.60;2.35;;;;;;;19.35;43.83;100656.67;1777986;80;20873;-91
2022/04/27 00:52:16;;;;;;;3.35;1.92;;;;;;;19.35;43.85;100655.88;1746812;81;21416;-91
2022/04/27 00:54:48;;;;;;;3.50;1.82;;;;;;;19.34;43.84;100666.66;1777976;80;20912;-91
2022/04/27 00:57:14;;;;;;;2.80;1.80;;;;;;;19.34;43.83;100662.52;1748165;81;21016;-91
2022/04/27 00:59:41;;;;;;;2.75;1.80;;;;;;;19.35;43.83;100673.81;1777615;80;21330;-91
2022/04/27 01:02:07;;;;;;;3.83;2.10;;;;;;;19.35;43.85;100671.05;1777294;80;20917;-91
2022/04/27 01:04:34;;;;;;;2.72;1.80;;;;;;;19.36;43.85;100664.39;1748028;81;20933;-91
2022/04/27 01:07:00;;;;;;;2.47;1.90;;;;;;;19.36;43.85;100660.25;1777419;80;20905;-91
2022/04/27 01:09:26;;;;;;;2.47;1.77;;;;;;;19.35;43.86;100658.64;1777844;80;21393;-91
2022/04/27 01:11:52;;;;;;;2.62;1.90;;;;;;;19.36;43.83;100663.01;1748080;82;21415;-90
2022/04/27 01:14:18;;;;;;;2.85;1.80;;;;;;;19.35;43.85;100662.78;1777694;80;20991;-92
2022/04/27 01:16:56;;;;;;;2.77;1.82;;;;;;;19.36;43.86;100665.77;1748078;82;20943;-90
2022/04/27 01:19:26;;;;;;;2.35;1.60;;;;;;;19.36;43.86;100658.88;1777653;80;21282;-91
2022/04/27 01:21:55;;;;;;;3.12;2.02;;;;;;;19.35;43.87;100662.78;1748016;81;21247;-91
2022/04/27 01:24:26;;;;;;;2.52;1.70;;;;;;;19.34;43.86;100666.09;1777883;80;20877;-91
2022/04/27 01:26:53;;;;;;;3.02;1.85;;;;;;;19.34;43.87;100673.55;1747627;81;20858;-91
2022/04/27 01:29:22;;;;;;;3.35;1.90;;;;;;;19.34;43.87;100678.52;1777702;80;20936;-91
2022/04/27 01:31:48;;;;;;;2.00;1.60;;;;;;;19.36;43.85;100698.88;1748205;81;21043;-91
2022/04/27 01:34:14;;;;;;;2.47;1.72;;;;;;;19.35;43.88;100704.95;1776576;80;21326;-91
2022/04/27 01:36:40;;;;;;;3.40;1.87;;;;;;;19.35;43.85;100701.40;1772301;80;20952;-91
2022/04/27 01:39:07;;;;;;;2.65;1.75;;;;;;;19.35;43.87;100702.78;1772675;81;20827;-91
2022/04/27 01:41:33;;;;;;;4.15;1.90;;;;;;;19.35;43.87;100709.67;1772299;80;20965;-91
2022/04/27 01:43:59;;;;;;;2.35;1.75;;;;;;;19.35;43.88;100713.81;1772463;80;20936;-91
2022/04/27 01:46:26;;;;;;;2.15;1.62;;;;;;;19.35;43.87;100716.58;1772417;79;20953;-91
2022/04/27 01:48:54;;;;;;;3.12;2.17;;;;;;;19.35;43.86;100715.20;1772207;80;21330;-91
2022/04/27 01:54:14;;;;;;;3.72;2.17;;;;;;;19.35;43.89;100718.73;1772520;80;20968;-91
2022/04/27 01:56:38;;;;;;;2.83;2.10;;;;;;;19.35;43.88;100715.98;1772523;80;20909;-91
2022/04/27 01:59:04;;;;;;;2.90;1.85;;;;;;;19.35;43.87;100720.71;1772664;80;21134;-91
2022/04/27 02:01:30;;;;;;;2.72;1.92;;;;;;;19.34;43.88;100721.27;1772343;80;21400;-91
2022/04/27 02:03:57;;;;;;;2.75;1.70;;;;;;;19.34;43.87;100721.27;1772380;80;20881;-91
2022/04/27 02:06:23;;;;;;;3.67;2.10;;;;;;;19.33;43.87;100721.02;1772642;80;21299;-91
2022/04/27 02:08:49;;;;;;;2.50;1.60;;;;;;;19.34;43.88;100720.45;1772628;80;21027;-91
2022/04/27 02:11:15;;;;;;;2.20;1.80;;;;;;;19.34;43.87;100717.69;1772152;80;21133;-91
2022/04/27 02:13:41;;;;;;;3.15;1.87;;;;;;;19.33;43.89;100718.25;1772456;80;20905;-91
2022/04/27 02:16:07;;;;;;;2.27;1.90;;;;;;;19.34;43.89;100720.45;1772763;80;20853;-91
2022/04/27 02:18:33;;;;;;;3.52;2.20;;;;;;;19.34;43.88;100721.83;1772540;80;20885;-91
2022/04/27 02:20:59;;;;;;;3.10;2.10;;;;;;;19.34;43.92;100720.45;1772579;80;21385;-91
2022/04/27 02:23:25;;;;;;;2.85;1.98;;;;;;;19.34;43.90;100709.42;1772666;80;21092;-91
2022/04/27 02:25:51;;;;;;;3.85;2.10;;;;;;;19.34;43.94;100712.99;1772063;80;20865;-91
2022/04/27 02:28:17;;;;;;;2.83;1.90;;;;;;;19.34;43.92;100713.55;1773007;80;20834;-91
2022/04/27 02:30:43;;;;;;;4.25;2.17;;;;;;;19.35;43.92;100715.20;1772290;81;20921;-91
2022/04/27 02:33:09;;;;;;;2.77;2.00;;;;;;;19.34;43.93;100719.08;1772397;80;21554;-91
2022/04/27 02:35:35;;;;;;;3.02;2.20;;;;;;;19.34;43.93;100724.03;1775399;80;21037;-91
2022/04/27 02:38:01;;;;;;;2.65;1.92;;;;;;;19.34;43.94;100724.59;1777701;80;20889;-91
2022/04/27 02:40:27;;;;;;;3.17;2.05;;;;;;;19.34;43.92;100728.73;1747573;82;20977;-91
2022/04/27 02:42:53;;;;;;;2.80;1.90;;;;;;;19.35;43.94;100723.47;1777906;80;20991;-91
2022/04/27 02:45:19;;;;;;;3.60;2.02;;;;;;;19.34;43.94;100731.48;1777918;80;20972;-91
2022/04/27 02:47:45;;;;;;;3.83;2.12;;;;;;;19.33;43.95;100722.95;1777372;79;21812;-89
2022/04/27 02:52:56;;;;;;;2.92;2.12;;;;;;;19.34;43.95;100724.59;1777262;80;21290;-91
2022/04/27 02:55:22;;;;;;;3.27;2.00;;;;;;;19.33;43.94;100725.70;1777888;80;20858;-91
2022/04/27 02:57:49;;;;;;;3.25;2.05;;;;;;;19.34;43.95;100734.24;1777864;80;20964;-91
2022/04/27 03:00:16;;;;;;;4.00;2.30;;;;;;;19.32;43.93;100735.92;1777494;80;21789;-91
2022/04/27 03:02:42;;;;;;;3.67;2.02;;;;;;;19.33;43.94;100741.70;1748036;81;21426;-91
2022/04/27 03:05:08;;;;;;;3.20;2.00;;;;;;;19.33;43.95;100743.64;1777631;80;20971;-91
2022/04/27 03:07:35;;;;;;;2.08;1.70;;;;;;;19.33;43.95;100750.53;1734846;82;21378;-91
2022/04/27 03:10:01;;;;;;;3.20;2.00;;;;;;;19.33;43.96;100747.78;1777952;80;20956;-91
2022/04/27 03:12:27;;;;;;;4.22;2.27;;;;;;;19.33;43.95;100746.40;1775132;80;21343;-91
2022/04/27 03:14:53;;;;;;;3.22;2.10;;;;;;;19.33;43.96;100744.46;1747736;82;20893;-91
2022/04/27 03:17:19;;;;;;;3.25;2.33;;;;;;;19.34;43.95;100749.42;1777883;80;20971;-91
2022/04/27 03:19:45;;;;;;;3.55;2.00;;;;;;;19.33;43.95;100746.40;1777601;80;20838;-91
2022/04/27 03:22:11;;;;;;;2.87;2.22;;;;;;;19.33;43.95;100752.73;1742707;82;20822;-91
2022/04/27 03:24:37;;;;;;;3.35;1.90;;;;;;;19.33;43.95;100746.40;1748028;82;21267;-91
2022/04/27 03:27:05;;;;;;;2.83;2.00;;;;;;;19.34;43.95;100757.69;1777670;79;20877;-91
2022/04/27 03:29:31;;;;;;;2.80;2.00;;;;;;;19.33;43.96;100755.49;1747582;82;21410;-91
2022/04/27 03:31:57;;;;;;;3.77;1.90;;;;;;;19.33;43.96;100758.81;1777931;80;20917;-91
2022/04/27 03:34:23;;;;;;;2.80;2.10;;;;;;;19.33;43.96;100759.63;1747821;81;20906;-90
2022/04/27 03:36:49;;;;;;;3.12;1.90;;;;;;;19.32;43.96;100757.98;1777437;80;21875;-91
2022/04/27 03:39:15;;;;;;;2.52;2.05;;;;;;;19.32;43.96;100765.45;1742894;82;20920;-91
2022/04/27 03:41:41;;;;;;;3.17;2.30;;;;;;;19.32;43.96;100769.02;1778060;80;20952;-91
2022/04/27 03:44:07;;;;;;;2.95;2.00;;;;;;;19.33;43.96;100769.84;1774900;80;21430;-91
2022/04/27 03:46:39;;;;;;;2.45;2.00;;;;;;;19.32;43.95;100771.78;1732461;82;20908;-90
2022/04/27 03:49:05;;;;;;;3.05;2.20;;;;;;;19.33;43.95;100769.84;1756140;81;21049;-91
2022/04/27 03:51:31;;;;;;;3.62;2.00;;;;;;;19.33;43.95;100779.50;1777343;80;20893;-91
2022/04/27 03:53:57;;;;;;;3.37;2.15;;;;;;;19.32;43.94;100778.68;1748023;81;20858;-91
2022/04/27 03:56:23;;;;;;;3.27;1.90;;;;;;;19.32;43.96;100775.92;1777510;80;20869;-91
2022/04/27 03:58:49;;;;;;;4.58;2.00;;;;;;;19.32;43.95;100781.44;1777563;80;21334;-91
2022/04/27 04:01:15;;;;;;;3.17;2.15;;;;;;;19.32;43.96;100785.58;1774976;80;21175;-90
2022/04/27 04:03:41;;;;;;;2.70;2.00;;;;;;;19.33;43.95;100790.53;1747984;82;20913;-91
2022/04/27 04:06:08;;;;;;;3.50;2.10;;;;;;;19.33;43.97;100794.67;1777205;80;20960;-91
2022/04/27 04:08:34;;;;;;;3.45;2.10;;;;;;;19.32;43.96;100796.61;1783223;80;21324;-91
2022/04/27 04:11:00;;;;;;;3.80;1.95;;;;;;;19.32;43.96;100799.37;1783068;80;20873;-91
2022/04/27 04:13:26;;;;;;;3.55;1.80;;;;;;;19.33;43.96;100806.53;1783138;80;21278;-91
2022/04/27 04:15:52;;;;;;;2.95;2.12;;;;;;;19.33;43.95;100802.39;1783165;80;21019;-91
2022/04/27 04:18:18;;;;;;;2.83;1.65;;;;;;;19.34;43.95;100811.48;1783024;80;20845;-91
2022/04/27 04:20:44;;;;;;;3.25;1.70;;;;;;;19.33;43.94;100809.84;1783065;80;20912;-91
2022/04/27 04:23:16;;;;;;;3.12;2.22;;;;;;;19.34;43.93;100817.00;1782803;80;20996;-91
2022/04/27 04:28:32;;;;;;;2.83;2.20;;;;;;;19.34;43.92;100821.14;1747723;82;21048;-91
2022/04/27 04:31:04;;;;;;;3.08;2.10;;;;;;;19.33;43.88;100816.74;1777525;79;21223;-91
2022/04/27 04:33:30;;;;;;;2.37;1.87;;;;;;;19.34;43.89;100822.52;1747088;81;20933;-91
2022/04/27 04:35:57;;;;;;;2.83;1.87;;;;;;;19.33;43.88;100827.77;1774776;80;21417;-91
2022/04/27 04:38:23;;;;;;;2.50;1.70;;;;;;;19.35;43.87;100825.55;1755616;81;21287;-91
2022/04/27 04:40:50;;;;;;;2.55;1.90;;;;;;;19.34;43.87;100821.14;1772309;81;20956;-91
2022/04/27 04:43:16;;;;;;;3.67;1.90;;;;;;;19.34;43.87;100826.10;1740521;82;20889;-89
2022/04/27 04:45:42;;;;;;;2.80;1.85;;;;;;;19.35;43.88;100833.81;1755741;80;20921;-89
2022/04/27 04:48:11;;;;;;;4.25;2.15;;;;;;;19.33;43.90;100829.98;1783526;80;21335;-91
2022/04/27 04:50:37;;;;;;;3.37;2.02;;;;;;;19.33;43.89;100831.36;1778467;79;21043;-92
2022/04/27 04:53:05;;;;;;;6.37;2.00;;;;;;;19.31;43.88;100852.11;1778059;79;21020;-93
2022/04/27 04:55:31;;;;;;;5.53;2.45;;;;;;;19.27;43.91;100849.69;1749945;81;20987;-93
2022/04/27 04:57:57;;;;;;;4.97;2.50;;;;;;;19.22;43.99;100856.15;1777474;79;21419;-91
2022/04/27 05:00:25;;;;;;;7.25;2.30;;;;;;;19.20;44.03;100864.45;1750000;81;20885;-92
2022/04/27 05:02:51;;;;;;;4.12;2.47;;;;;;;19.16;44.06;100872.53;1774484;80;21161;-93
2022/04/27 05:05:17;;;;;;;3.92;1.98;;;;;;;19.12;44.08;100868.20;1766775;79;20846;-90
2022/04/27 05:07:42;;;;;;;5.47;2.10;;;;;;;19.12;44.09;100874.27;1777610;80;20899;-90
2022/04/27 05:10:10;;;;;;;3.70;2.30;;;;;;;19.11;44.09;100879.52;1776739;79;21369;-92
2022/04/27 05:12:36;;;;;;;2.87;2.17;;;;;;;19.11;44.13;100881.72;1776599;80;21352;-93
2022/04/27 05:15:02;;;;;;;4.92;2.40;;;;;;;19.11;44.11;100874.00;1773629;79;21106;-92
2022/04/27 05:17:28;;;;;;;2.83;2.05;;;;;;;19.09;44.16;100869.38;1772862;80;20913;-90
2022/04/27 05:19:54;;;;;;;4.85;2.40;;;;;;;19.08;44.12;100879.59;1772435;81;21354;-91
2022/04/27 05:22:20;;;;;;;2.55;2.20;;;;;;;19.06;44.14;100874.92;1755835;81;21000;-94
2022/04/27 05:24:46;;;;;;;9.13;2.40;;;;;;;19.03;44.17;100878.30;1772274;81;20881;-95
2022/04/27 05:27:12;;;;;;;5.00;2.70;;;;;;;19.01;44.19;100872.84;1739889;81;21323;-90
2022/04/27 05:32:29;;;;;;;3.20;2.10;;;;;;;18.98;44.26;100873.44;1772648;81;21008;-91
2022/04/27 05:34:55;;;;;;;3.60;2.20;;;;;;;18.97;44.29;100873.16;1772019;80;21340;-89
2022/04/27 05:37:21;;;;;;;6.45;2.70;;;;;;;18.95;44.30;100873.49;1744132;81;20894;-90
2022/04/27 05:39:47;;;;;;;3.25;2.52;;;;;;;18.94;44.37;100877.36;1778914;79;21313;-90
2022/04/27 05:42:13;;;;;;;4.42;2.52;;;;;;;18.93;44.39;100885.38;1779342;79;21338;-91
2022/04/27 05:44:39;;;;;;;4.90;2.75;;;;;;;18.93;44.40;100895.58;1748518;81;20910;-95
2022/04/27 05:47:05;;;;;;;3.30;2.35;;;;;;;18.92;44.44;100889.27;1778692;80;20924;-95
2022/04/27 05:49:31;;;;;;;4.03;2.40;;;;;;;18.91;44.48;100889.02;1779314;80;20944;-95
2022/04/27 05:51:58;;;;;;;3.02;2.40;;;;;;;18.91;44.51;100899.22;1787242;79;21222;-92
2022/04/27 05:54:24;;;;;;;6.90;2.70;;;;;;;18.92;44.57;100910.51;1730348;81;20934;-95
2022/04/27 05:56:50;;;;;;;3.37;2.30;;;;;;;18.90;44.59;100908.05;1778701;80;20949;-94
2022/04/27 05:59:17;;;;;;;3.40;2.65;;;;;;;18.88;44.62;100913.06;1778310;80;20964;-92
2022/04/27 06:01:45;;;;;;;7.83;3.42;;;;;;;18.88;44.66;100918.58;1747035;81;20907;-91
2022/04/27 06:04:11;;;;;;;4.17;2.70;;;;;;;18.88;44.70;100921.33;1777374;80;21091;-92
2022/04/27 06:06:37;;;;;;;5.20;2.62;;;;;;;18.88;44.72;100916.38;1752658;81;20903;-92
2022/04/27 06:09:03;;;;;;;5.87;2.65;;;;;;;18.88;44.72;100917.75;1783769;79;21264;-93
2022/04/27 06:11:29;;;;;;;3.33;2.33;;;;;;;18.90;44.71;100915.49;1742149;80;20931;-94
2022/04/27 06:13:55;;;;;;;5.67;2.60;;;;;;;18.90;44.75;100912.73;1787082;79;21405;-93
2022/04/27 06:16:23;;;;;;;4.78;2.70;;;;;;;18.91;44.79;100919.89;1774648;79;21270;-93
2022/04/27 06:18:50;;;;;;;3.08;2.45;;;;;;;18.90;44.82;100919.07;1756536;80;21052;-93
2022/04/27 06:21:19;;;;;;;4.92;2.70;;;;;;;18.92;44.83;100918.78;1773299;80;20916;-95
2022/04/27 06:23:45;;;;;;;6.28;2.87;;;;;;;18.91;44.86;100917.95;1761218;80;20924;-96
2022/04/27 06:26:11;;;;;;;4.00;3.05;;;;;;;18.94;44.89;100916.52;1774358;80;20993;-95
2022/04/27 06:28:38;;;;;;;4.55;2.60;;;;;;;18.95;44.90;100918.16;1775265;80;21182;-94
2022/04/27 06:31:04;;;;;;;6.90;2.70;;;;;;;18.96;44.93;100920.63;1747631;81;21117;-95
2022/04/27 06:33:39;;;;;;;3.95;2.62;;;;;;;18.97;44.92;100920.03;1778203;80;20928;-96
2022/04/27 06:36:02;;;;;;;3.50;2.55;;;;;;;18.98;44.93;100921.68;1746948;81;21402;-96
2022/04/27 06:38:28;;;;;;;5.72;2.80;;;;;;;18.99;44.96;100924.14;1737770;82;20926;-95
2022/04/27 06:40:55;;;;;;;6.17;3.22;;;;;;;19.00;44.98;100923.59;1778251;79;21536;-94
2022/04/27 06:43:23;;;;;;;5.53;3.05;;;;;;;19.02;44.98;100930.42;1769027;79;20849;-96
2022/04/27 06:45:56;;;;;;;4.53;2.42;;;;;;;19.03;45.00;100932.63;1763461;79;20987;-94
2022/04/27 06:48:33;;;;;;;7.35;2.50;;;;;;;19.05;45.04;100930.39;1753516;79;20958;-96
2022/04/27 06:50:59;;;;;;;2.58;2.08;;;;;;;19.05;45.05;100935.91;1769526;79;21068;-92
2022/04/27 06:53:27;;;;;;;3.67;2.17;;;;;;;19.07;44.95;100935.03;1722466;81;20939;-93
2022/04/27 06:55:54;;;;;;;2.30;2.08;;;;;;;19.09;44.89;100933.62;1774701;79;20977;-91
2022/04/27 06:58:22;;;;;;;4.58;2.00;;;;;;;19.11;44.80;100941.57;1780703;79;21484;-86
2022/04/27 07:00:49;;;;;;;4.15;2.35;;;;;;;19.13;44.76;100932.45;1755036;80;20941;-90
2022/04/27 07:03:15;;;;;;;3.15;2.10;;;;;;;19.15;44.70;100932.94;1764517;80;21412;-86
2022/04/27 07:05:42;;;;;;;7.05;3.87;;;;;;;19.18;44.77;100941.19;1768781;79;21323;-91
2022/04/27 07:08:14;;;;;;;4.78;2.70;;;;;;;19.18;44.81;100942.80;1767850;79;21015;-86
2022/04/27 07:10:40;;;;;;;7.70;3.47;;;;;;;19.20;44.80;100941.69;1765682;79;21897;-94
2022/04/27 07:13:07;;;;;;;7.22;3.08;;;;;;;19.21;44.84;100939.19;1770144;79;20984;-88
2022/04/27 07:15:33;;;;;;;3.90;2.33;;;;;;;19.22;44.89;100940.27;1774202;79;21051;-91
2022/04/27 07:18:00;;;;;;;6.42;2.80;;;;;;;19.24;44.93;100946.84;1778607;79;21636;-91
2022/04/27 07:20:26;;;;;;;6.22;2.37;;;;;;;19.23;44.98;100944.64;1777031;79;21060;-91
2022/04/27 07:22:55;;;;;;;4.28;2.85;;;;;;;19.25;44.99;100945.17;1763620;79;20995;-89
2022/04/27 07:25:21;;;;;;;5.62;2.50;;;;;;;19.27;45.11;100950.37;1776962;80;20973;-94
2022/04/27 07:27:47;;;;;;;5.42;2.67;;;;;;;19.26;45.25;100944.62;1749121;79;21252;-88
2022/04/27 07:30:13;;;;;;;7.20;2.98;;;;;;;19.27;45.34;100948.43;1776482;79;22461;-87
2022/04/27 07:36:26;;;;;;;4.60;2.75;;;;;;;19.27;45.70;100949.81;1764829;79;21060;-91
2022/04/27 07:38:52;;;;;;;5.12;2.85;;;;;;;19.27;45.82;100949.81;1709515;82;21032;-90
2022/04/27 07:41:19;;;;;;;3.92;2.90;;;;;;;19.28;45.74;100940.98;1679974;83;36059;-88
2022/04/27 07:43:46;;;;;;;8.00;2.85;;;;;;;19.27;45.85;100944.29;1772682;79;21032;-96
2022/04/27 07:46:13;;;;;;;5.30;2.45;;;;;;;19.28;45.91;100940.98;1752598;79;20941;-93
2022/04/27 07:48:39;;;;;;;2.85;2.22;;;;;;;19.29;45.88;100942.06;1762315;81;20974;-91
2022/04/27 07:51:06;;;;;;;4.45;2.95;;;;;;;19.31;45.84;100940.39;1768634;79;20989;-90
2022/04/27 07:53:32;;;;;;;4.87;2.42;;;;;;;19.32;45.87;100943.38;1762092;79;21461;-89
2022/04/27 07:55:58;;;;;;;4.85;2.50;;;;;;;19.34;45.86;100949.42;1751521;80;21098;-87
2022/04/27 07:58:25;;;;;;;4.60;2.27;;;;;;;19.35;45.90;100940.03;1758642;80;20929;-92
2022/04/27 08:00:51;;;;;;;5.53;2.17;;;;;;;19.35;45.87;100935.30;1759261;79;21877;-91
2022/04/27 08:03:17;;;;;;;5.72;2.47;;;;;;;19.37;45.81;100945.48;1773289;79;20977;-92
2022/04/27 08:05:45;;;;;;;3.90;2.15;;;;;;;19.39;45.78;100946.57;1761853;79;21598;-92
2022/04/27 08:08:11;;;;;;;6.05;2.55;;;;;;;19.41;45.83;100945.69;1762562;79;21130;-87
2022/04/27 08:10:38;;;;;;;4.75;2.15;;;;;;;19.44;45.80;100944.54;1755683;79;22282;-87
2022/04/27 08:13:04;;;;;;;2.37;2.10;;;;;;;19.48;45.88;100943.36;1756665;79;21005;-86
2022/04/27 08:15:30;;;;;;;3.45;2.15;;;;;;;19.53;45.91;100948.22;1760351;81;20980;-86
2022/04/27 08:18:06;;;;;;;2.67;2.05;;;;;;;19.58;45.90;100945.37;1713992;83;21096;-87
2022/04/27 08:23:24;;;;;;;4.85;1.82;;;;;;;19.71;45.83;100945.66;1762999;80;21003;-86
2022/04/27 08:25:50;;;;;;;5.10;1.90;;;;;;;19.77;45.76;100937.55;1714303;83;21524;-86
2022/04/27 08:28:17;;;;;;;3.27;1.85;;;;;;;19.84;45.71;100941.52;1715564;82;21079;-86
2022/04/27 08:30:46;;;;;;;2.70;1.87;;;;;;;19.91;45.66;100934.17;1719433;81;21113;-86
2022/04/27 08:33:12;;;;;;;6.83;2.02;;;;;;;19.98;45.61;100932.65;1714214;82;21137;-86
2022/04/27 08:35:38;;;;;;;3.98;1.87;;;;;;;20.06;45.53;100931.91;1710622;82;21363;-86
2022/04/27 08:38:07;;;;;;;3.33;2.27;;;;;;;20.13;45.46;100936.99;1706712;82;21020;-86
2022/04/27 08:40:40;;;;;;;3.58;2.05;;;;;;;20.19;45.42;100939.09;1738654;81;21420;-83
2022/04/27 08:43:06;;;;;;;4.55;1.90;;;;;;;20.25;45.36;100933.67;1724846;80;21012;-84
2022/04/27 08:45:33;;;;;;;8.35;1.98;;;;;;;20.31;45.28;100932.47;1738010;80;21680;-84
2022/04/27 08:47:59;;;;;;;11.55;2.33;;;;;;;20.36;45.23;100933.18;1737193;81;20961;-84
2022/04/27 08:50:26;;;;;;;12.47;1.98;;;;;;;20.41;45.19;100935.80;1748339;80;20892;-84
2022/04/27 08:52:53;;;;;;;5.15;1.80;;;;;;;20.45;45.15;100938.77;1708478;83;20964;-84
2022/04/27 08:55:20;;;;;;;6.08;2.08;;;;;;;20.47;45.11;100935.12;1732627;81;21352;-91
2022/04/27 08:58:07;;;;;;;13.38;2.42;;;;;;;20.51;45.07;100938.33;1716203;83;21147;-83
2022/04/27 09:00:34;;;;;;;16.27;1.95;;;;;;;20.55;45.05;100934.36;1757405;80;20920;-83
2022/04/27 09:03:32;;;;;;;10.88;2.22;;;;;;;20.59;45.01;100924.87;1739802;81;21444;-83
2022/04/27 09:06:03;;;;;;;19.10;2.60;;;;;;;20.64;44.97;100928.89;1746910;80;21444;-82
2022/04/27 09:08:49;;;;;;;11.70;2.33;;;;;;;20.66;44.93;100926.09;1707266;82;21441;-82
2022/04/27 09:11:29;;;;;;;10.53;2.40;;;;;;;20.69;44.97;100926.83;1719623;81;22311;-83
2022/04/27 09:14:01;;;;;;;11.70;2.90;;;;;;;20.68;45.01;100918.28;1724956;82;21000;-83
2022/04/27 09:22:08;;;;;;;5.92;2.15;;;;;;;20.61;45.16;100905.48;1728925;81;21092;-83
2022/04/27 09:24:49;;;;;;;3.72;2.30;;;;;;;20.61;45.26;100909.62;1745525;80;21245;-83
2022/04/27 09:27:18;;;;;;;7.15;2.20;;;;;;;20.60;45.31;100912.69;1742369;80;21020;-83
2022/04/27 09:30:14;;;;;;;5.67;1.98;;;;;;;20.59;45.30;100905.52;1726425;81;21097;-83
2022/04/27 09:32:37;;;;;;;5.00;2.08;;;;;;;20.59;45.30;100902.76;1733038;81;20980;-83
2022/04/27 09:35:08;;;;;;;4.35;2.10;;;;;;;20.59;45.28;100901.37;1741378;81;21013;-83
2022/04/27 09:37:41;;;;;;;4.83;1.87;;;;;;;20.58;45.35;100896.41;1733884;80;21126;-83
2022/04/27 09:40:12;;;;;;;6.00;2.08;;;;;;;20.59;45.39;100892.52;1716268;82;21047;-83
2022/04/27 09:42:46;;;;;;;3.37;2.00;;;;;;;20.60;45.47;100896.11;1725883;82;21063;-81
2022/04/27 09:45:25;;;;;;;4.60;2.00;;;;;;;20.60;45.44;100889.19;1734304;81;20957;-80
2022/04/27 09:48:01;;;;;;;4.78;1.90;;;;;;;20.63;45.45;100886.61;1734823;81;21443;-81
2022/04/27 09:50:52;;;;;;;3.92;2.20;;;;;;;20.70;45.44;100890.33;1731213;81;21059;-81
2022/04/27 09:53:19;;;;;;;4.62;2.10;;;;;;;20.76;45.38;100878.80;1736344;81;20972;-81
2022/04/27 09:55:52;;;;;;;5.85;1.85;;;;;;;20.82;45.28;100885.02;1729484;81;21088;-81
2022/04/27 09:58:21;;;;;;;3.83;1.90;;;;;;;20.88;45.21;100883.73;1733190;81;21107;-81
2022/04/27 10:00:52;;;;;;;2.72;1.77;;;;;;;20.91;45.16;100881.74;1736189;81;21013;-82
2022/04/27 10:03:19;;;;;;;4.12;2.02;;;;;;;20.93;45.10;100872.55;1720947;81;21394;-81
2022/04/27 10:05:46;;;;;;;6.65;1.95;;;;;;;20.97;45.04;100869.39;1738350;81;21168;-81
2022/04/27 10:08:12;;;;;;;3.58;1.90;;;;;;;21.00;44.99;100872.92;1733321;82;21020;-83
2022/04/27 10:10:41;;;;;;;4.60;1.80;;;;;;;21.03;44.94;100864.55;1733594;81;21025;-83
2022/04/27 10:13:18;;;;;;;3.75;1.77;;;;;;;21.04;44.89;100860.08;1749766;81;21009;-82
2022/04/27 10:15:46;;;;;;;3.40;2.08;;;;;;;21.06;44.87;100858.36;1745119;80;21038;-82
2022/04/27 10:18:18;;;;;;;4.05;2.00;;;;;;;21.06;44.83;100861.13;1733635;80;20964;-82
2022/04/27 10:20:44;;;;;;;3.92;1.75;;;;;;;21.05;44.82;100867.22;1736112;81;21393;-82
2022/04/27 10:23:27;;;;;;;3.55;1.85;;;;;;;21.06;44.80;100862.52;1741729;81;22202;-82
2022/04/27 10:26:17;;;;;;;3.22;1.87;;;;;;;21.05;44.79;100854.78;1729784;81;21014;-82
2022/04/27 10:28:56;;;;;;;5.42;1.80;;;;;;;21.05;44.76;100857.55;1742944;81;21066;-81
2022/04/27 10:31:47;;;;;;;4.78;1.70;;;;;;;21.06;44.73;100857.80;1714775;82;21012;-81
2022/04/27 10:34:20;;;;;;;;;;;;;;;21.06;44.72;100851.45;1736775;81;21417;-82
2022/04/27 10:36:58;;;;;;;5.20;1.80;;;;;;;21.07;44.74;100848.38;1733865;82;20455;-82
2022/04/27 10:39:43;;;;;;;4.35;1.70;;;;;;;21.09;44.65;100849.45;1769814;80;21879;-82
2022/04/27 10:42:25;;;;;;;2.85;1.90;;;;;;;21.10;44.64;100844.14;1768334;79;21064;-81
2022/04/27 10:45:02;;;;;;;3.12;1.72;;;;;;;21.09;44.59;100843.32;1738134;80;21044;-82
2022/04/27 10:47:33;;;;;;;3.08;1.72;;;;;;;21.09;44.60;100840.55;1771471;79;20933;-82
2022/04/27 10:50:17;;;;;;;2.95;1.72;;;;;;;21.09;44.59;100839.77;1727776;82;21017;-82
2022/04/27 10:52:55;;;;;;;3.27;1.85;;;;;;;21.09;44.58;100838.38;1771220;79;20920;-82
2022/04/27 10:55:48;;;;;;;3.52;1.80;;;;;;;21.09;44.56;100834.23;1775035;79;21148;-82
2022/04/27 10:58:33;;;;;;;3.27;1.55;;;;;;;21.07;44.57;100826.81;1756159;81;21032;-82
2022/04/27 11:01:18;;;;;;;2.90;1.90;;;;;;;21.05;44.56;100828.50;1774367;79;20992;-81
2022/04/27 11:03:41;;;;;;;4.22;2.33;;;;;;;21.04;44.56;100829.66;1745500;80;20924;-81
2022/04/27 11:06:12;;;;;;;3.45;1.77;;;;;;;21.04;44.57;100826.08;1750322;81;21062;-81
2022/04/27 11:09:10;;;;;;;;;;;;;;;21.03;44.57;100821.67;1782981;79;21097;-81
2022/04/27 11:11:51;;;;;;;2.87;1.55;;;;;;;21.01;44.58;100829.45;1781536;79;20492;-81
2022/04/27 11:14:16;;;;;;;2.17;1.50;;;;;;;20.99;44.61;100817.34;1746824;80;21009;-80
2022/04/27 11:16:47;;;;;;;3.98;1.72;;;;;;;20.97;44.62;100820.42;1771136;80;20909;-81
2022/04/27 11:19:12;;;;;;;3.40;1.57;;;;;;;20.96;44.65;100818.00;1745350;80;20942;-81
2022/04/27 11:21:45;;;;;;;3.02;1.62;;;;;;;20.95;44.65;100811.64;1768514;79;21697;-81
2022/04/27 11:24:11;;;;;;;4.28;1.77;;;;;;;20.95;44.68;100812.21;1778315;79;21836;-81
2022/04/27 11:26:44;;;;;;;2.17;1.35;;;;;;;20.94;44.69;100810.01;1750552;80;20956;-81
2022/04/27 11:29:12;;;;;;;1.98;1.37;;;;;;;20.94;44.71;100809.19;1773186;79;20905;-81
2022/04/27 11:31:39;;;;;;;2.42;1.60;;;;;;;20.92;44.71;100799.81;1761796;81;20965;-81
2022/04/27 11:34:21;;;;;;;2.83;1.72;;;;;;;20.92;44.74;100804.53;1768929;80;21850;-82
2022/04/27 11:36:47;;;;;;;3.65;1.37;;;;;;;20.90;44.72;100798.52;1744205;80;21009;-81
2022/04/27 11:39:22;;;;;;;5.55;1.57;;;;;;;20.90;44.76;100789.66;1774099;79;21451;-80
2022/04/27 11:41:59;;;;;;;4.15;1.60;;;;;;;20.90;44.74;100790.22;1770182;80;21377;-80
2022/04/27 11:44:27;;;;;;;2.55;1.60;;;;;;;20.88;44.76;100780.03;1754907;80;21475;-81
2022/04/27 11:46:53;;;;;;;2.77;1.57;;;;;;;20.87;44.78;100775.09;1771877;79;21092;-81
2022/04/27 11:49:20;;;;;;;2.67;1.70;;;;;;;20.86;44.80;100774.84;1771118;79;21517;-81
2022/04/27 11:51:46;;;;;;;2.77;1.65;;;;;;;20.86;44.83;100774.84;1771574;80;20925;-81
2022/04/27 11:54:29;;;;;;;5.33;1.90;;;;;;;20.85;44.86;100770.44;1746288;81;21439;-81